createdAt,value
2018-07-17T00:00:00.973Z,99670.75
2018-07-17T00:02:29.869Z,99673.13
2018-07-17T00:04:58.866Z,99673.77
2018-07-17T00:07:27.805Z,99677.83
2018-07-17T00:09:56.761Z,99675.80
2018-07-17T00:12:25.971Z,99678.05
2018-07-17T00:14:55.041Z,99678.30
2018-07-17T00:17:23.957Z,99671.06
2018-07-17T00:19:52.867Z,99667.77
2018-07-17T00:22:21.944Z,99669.80
2018-07-17T00:24:50.910Z,99669.69
2018-07-17T00:27:19.820Z,99665.27
2018-07-17T00:29:48.739Z,99667.06
2018-07-17T00:32:17.693Z,99667.73
2018-07-17T00:34:46.682Z,99668.38
2018-07-17T00:37:15.583Z,99663.42
2018-07-17T00:39:44.484Z,99664.85
2018-07-17T00:42:13.429Z,99662.82
2018-07-17T00:44:42.357Z,99665.59
2018-07-17T00:47:11.260Z,99666.34
2018-07-17T00:49:40.185Z,99669.83
2018-07-17T00:52:09.124Z,99670.56
2018-07-17T00:54:38.046Z,99654.18
2018-07-17T00:57:07.012Z,99654.64
2018-07-17T00:59:35.946Z,99656.00
2018-07-17T01:02:10.303Z,99662.40
2018-07-17T01:04:44.645Z,99676.13
2018-07-17T01:07:19.007Z,99659.90
2018-07-17T01:09:53.296Z,99655.73
2018-07-17T01:12:21.433Z,99660.02
2018-07-17T01:15:55.518Z,99661.61
2018-07-17T01:18:24.478Z,99657.71
2018-07-17T01:20:53.465Z,99663.23
2018-07-17T01:23:22.476Z,99661.52
2018-07-17T01:25:51.628Z,99654.75
2018-07-17T01:28:20.543Z,99656.05
2018-07-17T01:30:49.496Z,99657.19
2018-07-17T01:33:18.392Z,99657.96
2018-07-17T01:35:47.349Z,99661.67
2018-07-17T01:38:16.359Z,99663.13
2018-07-17T01:40:45.262Z,99666.97
2018-07-17T01:43:14.193Z,99662.56
2018-07-17T01:45:43.289Z,99658.84
2018-07-17T01:48:12.196Z,99665.00
2018-07-17T01:50:41.456Z,99666.34
2018-07-17T01:53:10.363Z,99663.11
2018-07-17T01:55:39.301Z,99669.94
2018-07-17T01:58:08.229Z,99669.35
2018-07-17T02:00:37.607Z,99672.05
2018-07-17T02:03:06.811Z,99670.48
2018-07-17T02:05:35.787Z,99665.39
2018-07-17T02:08:04.708Z,99664.36
2018-07-17T02:10:33.634Z,99668.31
2018-07-17T02:13:02.616Z,99666.06
2018-07-17T02:15:31.530Z,99664.23
2018-07-17T02:18:00.550Z,99662.17
2018-07-17T02:20:29.505Z,99663.08
2018-07-17T02:22:58.455Z,99661.36
2018-07-17T02:25:27.408Z,99663.25
2018-07-17T02:27:56.343Z,99662.91
2018-07-17T02:30:25.283Z,99660.84
2018-07-17T02:32:54.396Z,99666.12
2018-07-17T02:35:23.337Z,99665.39
2018-07-17T02:37:52.364Z,99669.23
2018-07-17T02:40:21.296Z,99663.05
2018-07-17T02:43:01.725Z,99673.23
2018-07-17T02:45:30.847Z,99675.52
2018-07-17T02:47:59.797Z,99670.52
2018-07-17T02:50:39.788Z,99670.62
2018-07-17T02:53:10.416Z,99672.53
2018-07-17T02:55:39.362Z,99676.08
2018-07-17T02:58:08.327Z,99680.27
2018-07-17T03:00:37.520Z,99680.38
2018-07-17T03:03:06.598Z,99676.03
2018-07-17T03:05:35.624Z,99674.86
2018-07-17T03:08:04.584Z,99679.60
2018-07-17T03:10:33.605Z,99685.19
2018-07-17T03:13:02.508Z,99684.45
2018-07-17T03:15:31.455Z,99681.08
2018-07-17T03:18:00.422Z,99685.72
2018-07-17T03:20:29.373Z,99679.98
2018-07-17T03:22:58.363Z,99688.20
2018-07-17T03:25:27.292Z,99693.88
2018-07-17T03:27:56.226Z,99690.97
2018-07-17T03:30:25.140Z,99696.55
2018-07-17T03:32:54.346Z,99697.89
2018-07-17T03:35:23.377Z,99694.08
2018-07-17T03:37:52.313Z,99700.18
2018-07-17T03:40:21.229Z,99698.50
2018-07-17T03:42:50.137Z,99694.13
2018-07-17T03:45:19.133Z,99691.45
2018-07-17T03:47:48.087Z,99695.91
2018-07-17T03:50:16.980Z,99694.34
2018-07-17T03:52:45.921Z,99702.48
2018-07-17T03:55:14.937Z,99699.30
2018-07-17T03:57:43.863Z,99697.17
2018-07-17T04:00:12.800Z,99696.63
2018-07-17T04:02:41.818Z,99697.20
2018-07-17T04:05:10.707Z,99693.17
2018-07-17T04:07:39.663Z,99697.80
2018-07-17T04:10:08.662Z,99691.38
2018-07-17T04:12:37.593Z,99694.44
2018-07-17T04:15:06.548Z,99694.91
2018-07-17T04:17:35.470Z,99698.86
2018-07-17T04:20:04.460Z,99697.28
2018-07-17T04:22:33.417Z,99697.17
2018-07-17T04:25:02.528Z,99699.64
2018-07-17T04:27:31.449Z,99701.81
2018-07-17T04:30:00.393Z,99699.00
2018-07-17T04:32:29.301Z,99693.67
2018-07-17T04:34:58.233Z,99697.41
2018-07-17T04:37:27.139Z,99700.56
2018-07-17T04:39:56.057Z,99710.63
2018-07-17T04:42:24.997Z,99717.31
2018-07-17T04:44:54.096Z,99709.52
2018-07-17T04:47:23.067Z,99709.11
2018-07-17T04:49:52.010Z,99716.36
2018-07-17T04:52:20.973Z,99715.99
2018-07-17T04:54:49.907Z,99715.34
2018-07-17T04:57:18.854Z,99721.77
2018-07-17T04:59:47.769Z,99725.39
2018-07-17T05:02:16.675Z,99722.20
2018-07-17T05:04:45.603Z,99723.33
2018-07-17T05:07:14.554Z,99722.88
2018-07-17T05:09:43.504Z,99717.17
2018-07-17T05:12:12.453Z,99720.88
2018-07-17T05:14:41.478Z,99727.45
2018-07-17T05:17:10.709Z,99737.03
2018-07-17T05:19:39.627Z,99734.63
2018-07-17T05:22:08.597Z,99731.01
2018-07-17T05:24:37.506Z,99738.44
2018-07-17T05:27:06.412Z,99743.94
2018-07-17T05:29:35.415Z,99754.84
2018-07-17T05:32:04.379Z,99754.91
2018-07-17T05:34:33.304Z,99754.74
2018-07-17T05:37:02.229Z,99753.92
2018-07-17T05:39:31.225Z,99750.80
2018-07-17T05:42:00.137Z,99747.94
2018-07-17T05:44:29.044Z,99746.72
2018-07-17T05:46:58.096Z,99747.48
2018-07-17T05:49:27.010Z,99752.26
2018-07-17T05:51:55.992Z,99754.25
2018-07-17T05:54:24.848Z,99755.56
2018-07-17T05:56:53.775Z,99754.99
2018-07-17T05:59:22.699Z,99748.27
2018-07-17T06:01:51.613Z,99748.20
2018-07-17T06:04:20.554Z,99749.13
2018-07-17T06:06:49.477Z,99743.42
2018-07-17T06:09:18.387Z,99748.95
2018-07-17T06:11:47.298Z,99744.76
2018-07-17T06:14:16.250Z,99741.47
2018-07-17T06:16:45.205Z,99747.28
2018-07-17T06:19:14.180Z,99744.89
2018-07-17T06:21:43.094Z,99739.31
2018-07-17T06:24:12.020Z,99737.77
2018-07-17T06:26:40.970Z,99734.13
2018-07-17T06:29:09.925Z,99730.45
2018-07-17T06:31:38.877Z,99727.11
2018-07-17T06:34:07.864Z,99732.79
2018-07-17T06:36:36.802Z,99726.83
2018-07-17T06:39:07.093Z,99722.11
2018-07-17T06:41:36.015Z,99723.55
2018-07-17T06:44:04.989Z,99723.64
2018-07-17T06:46:33.930Z,99727.54
2018-07-17T06:49:02.852Z,99720.66
2018-07-17T06:51:31.827Z,99724.19
2018-07-17T06:54:00.817Z,99711.44
2018-07-17T06:56:29.736Z,99716.90
2018-07-17T06:58:58.717Z,99717.00
2018-07-17T07:01:27.651Z,99713.88
2018-07-17T07:03:57.559Z,99715.17
2018-07-17T07:06:27.370Z,99715.64
2018-07-17T07:08:56.232Z,99713.41
2018-07-17T07:11:25.355Z,99720.45
2018-07-17T07:13:54.282Z,99714.16
2018-07-17T07:16:23.215Z,99708.85
2018-07-17T07:18:52.136Z,99695.94
2018-07-17T07:21:21.067Z,99688.50
2018-07-17T07:23:49.987Z,99694.44
2018-07-17T07:26:19.076Z,99692.92
2018-07-17T07:28:48.018Z,99686.66
2018-07-17T07:31:16.920Z,99690.35
2018-07-17T07:33:45.850Z,99689.93
2018-07-17T07:36:14.807Z,99686.26
2018-07-17T07:38:43.744Z,99687.63
2018-07-17T07:41:12.724Z,99691.38
2018-07-17T07:43:41.674Z,99692.15
2018-07-17T07:46:10.728Z,99689.45
2018-07-17T07:48:41.292Z,99689.44
2018-07-17T07:51:11.125Z,99689.78
2018-07-17T07:53:40.161Z,99682.58
2018-07-17T07:56:09.124Z,99677.83
2018-07-17T07:58:38.049Z,99674.95
2018-07-17T08:01:07.525Z,99677.16
2018-07-17T08:03:36.487Z,99669.63
2018-07-17T08:06:05.398Z,99681.64
2018-07-17T08:08:34.386Z,99679.09
2018-07-17T08:11:03.343Z,99681.59
2018-07-17T08:13:32.262Z,99679.61
2018-07-17T08:16:01.173Z,99677.86
2018-07-17T08:18:30.116Z,99687.14
2018-07-17T08:20:59.021Z,99682.54
2018-07-17T08:23:27.948Z,99687.83
2018-07-17T08:25:56.926Z,99682.44
2018-07-17T08:28:25.855Z,99682.63
2018-07-17T08:30:54.839Z,99676.58
2018-07-17T08:33:23.829Z,99674.29
2018-07-17T08:35:52.829Z,99675.59
2018-07-17T08:38:21.735Z,99676.31
2018-07-17T08:40:50.649Z,99677.59
2018-07-17T08:43:19.858Z,99668.66
2018-07-17T08:45:48.692Z,99665.66
2018-07-17T08:48:17.662Z,99664.22
2018-07-17T08:50:46.990Z,99666.84
2018-07-17T08:53:15.897Z,99670.41
2018-07-17T08:55:44.945Z,99668.28
2018-07-17T08:58:13.865Z,99667.84
2018-07-17T09:00:42.818Z,99666.25
2018-07-17T09:03:11.862Z,99671.44
2018-07-17T09:05:40.792Z,99669.70
2018-07-17T09:08:09.729Z,99669.28
2018-07-17T09:10:38.696Z,99668.60
2018-07-17T09:13:07.660Z,99658.32
2018-07-17T09:15:36.680Z,99665.30
2018-07-17T09:18:05.613Z,99666.77
2018-07-17T09:20:34.580Z,99663.05
2018-07-17T09:23:03.488Z,99664.88
2018-07-17T09:25:32.469Z,99665.68
2018-07-17T09:28:01.385Z,99660.88
2018-07-17T09:30:35.631Z,99661.17
2018-07-17T09:33:04.577Z,99651.87
2018-07-17T09:35:33.548Z,99642.47
2018-07-17T09:38:02.538Z,99642.49
2018-07-17T09:40:31.435Z,99641.99
2018-07-17T09:43:00.339Z,99638.80
2018-07-17T09:45:29.328Z,99630.29
2018-07-17T09:47:58.256Z,99625.28
2018-07-17T09:50:27.170Z,99628.13
2018-07-17T09:52:56.274Z,99627.33
2018-07-17T09:55:25.180Z,99623.50
2018-07-17T09:57:54.373Z,99629.14
2018-07-17T10:00:28.563Z,99634.00
2018-07-17T10:02:57.478Z,99627.48
2018-07-17T10:05:26.416Z,99622.53
2018-07-17T10:07:55.339Z,99640.64
2018-07-17T10:10:24.303Z,99635.27
2018-07-17T10:12:53.223Z,99639.73
2018-07-17T10:15:22.159Z,99640.52
2018-07-17T10:17:51.237Z,99641.85
2018-07-17T10:20:20.414Z,99642.31
2018-07-17T10:22:49.354Z,99644.41
2018-07-17T10:25:18.312Z,99644.53
2018-07-17T10:27:47.216Z,99635.37
2018-07-17T10:30:16.147Z,99649.84
2018-07-17T10:32:45.046Z,99651.35
2018-07-17T10:35:13.992Z,99641.25
2018-07-17T10:37:43.138Z,99642.78
2018-07-17T10:40:12.359Z,99636.05
2018-07-17T10:42:41.284Z,99634.09
2018-07-17T10:45:10.217Z,99624.55
2018-07-17T10:47:39.172Z,99623.08
2018-07-17T10:50:08.096Z,99628.92
2018-07-17T10:52:37.028Z,99630.09
2018-07-17T10:55:06.007Z,99626.13
2018-07-17T10:57:34.921Z,99634.20
2018-07-17T11:00:04.250Z,99627.26
2018-07-17T11:02:33.225Z,99624.16
2018-07-17T11:05:02.143Z,99621.45
2018-07-17T11:07:31.076Z,99616.82
2018-07-17T11:10:00.081Z,99619.16
2018-07-17T11:12:29.244Z,99616.03
2018-07-17T11:14:58.678Z,99628.31
2018-07-17T11:17:27.708Z,99622.09
2018-07-17T11:19:56.677Z,99618.47
2018-07-17T11:22:25.820Z,99616.98
2018-07-17T11:24:54.796Z,99620.75
2018-07-17T11:27:23.860Z,99605.81
2018-07-17T11:29:52.997Z,99610.77
2018-07-17T11:32:21.942Z,99608.05
2018-07-17T11:34:51.134Z,99608.55
2018-07-17T11:37:20.090Z,99598.59
2018-07-17T11:39:49.024Z,99598.42
2018-07-17T11:42:18.053Z,99598.82
2018-07-17T11:44:46.980Z,99596.06
2018-07-17T11:47:15.893Z,99578.56
2018-07-17T11:49:44.837Z,99584.63
2018-07-17T11:52:13.775Z,99588.40
2018-07-17T11:54:42.703Z,99582.56
2018-07-17T11:57:11.607Z,99579.83
2018-07-17T11:59:40.659Z,99584.00
2018-07-17T12:02:09.484Z,99592.50
2018-07-17T12:04:38.400Z,99584.55
2018-07-17T12:07:07.334Z,99570.09
2018-07-17T12:09:36.296Z,99578.15
2018-07-17T12:12:05.548Z,99577.56
2018-07-17T12:14:34.446Z,99569.90
2018-07-17T12:17:03.466Z,99569.73
2018-07-17T12:19:32.504Z,99562.33
2018-07-17T12:22:01.406Z,99557.80
2018-07-17T12:24:30.332Z,99561.52
2018-07-17T12:26:59.274Z,99556.97
2018-07-17T12:29:28.236Z,99550.16
2018-07-17T12:31:57.162Z,99557.23
2018-07-17T12:34:26.081Z,99560.38
2018-07-17T12:36:55.027Z,99543.73
2018-07-17T12:39:24.061Z,99553.66
2018-07-17T12:41:52.999Z,99547.16
2018-07-17T12:44:21.986Z,99536.28
2018-07-17T12:46:50.878Z,99536.92
2018-07-17T12:49:19.891Z,99534.45
2018-07-17T12:51:48.924Z,99539.10
2018-07-17T12:54:18.142Z,99534.20
2018-07-17T12:56:47.267Z,99535.28
2018-07-17T12:59:16.272Z,99518.41
2018-07-17T13:01:45.227Z,99525.06
2018-07-17T13:04:14.152Z,99523.18
2018-07-17T13:06:43.104Z,99525.28
2018-07-17T13:09:12.040Z,99524.91
2018-07-17T13:11:40.988Z,99529.17
2018-07-17T13:14:09.941Z,99520.45
2018-07-17T13:16:38.963Z,99520.03
2018-07-17T13:19:07.929Z,99524.38
2018-07-17T13:21:37.234Z,99517.84
2018-07-17T13:24:06.212Z,99509.39
2018-07-17T13:26:35.365Z,99517.80
2018-07-17T13:29:04.436Z,99513.53
2018-07-17T13:31:33.391Z,99515.27
2018-07-17T13:34:02.504Z,99509.22
2018-07-17T13:36:31.478Z,99499.60
2018-07-17T13:39:00.424Z,99507.91
2018-07-17T13:41:29.383Z,99510.81
2018-07-17T13:43:58.338Z,99503.25
2018-07-17T13:46:27.452Z,99504.32
2018-07-17T13:48:56.399Z,99497.98
2018-07-17T13:51:26.906Z,99496.38
2018-07-17T13:53:56.027Z,99497.97
2018-07-17T13:56:25.236Z,99489.14
2018-07-17T13:58:54.233Z,99486.98
2018-07-17T14:01:23.226Z,99471.50
2018-07-17T14:03:52.198Z,99476.70
2018-07-17T14:06:21.155Z,99485.58
2018-07-17T14:08:50.146Z,99488.01
2018-07-17T14:11:19.157Z,99485.97
2018-07-17T14:13:48.142Z,99480.89
2018-07-17T14:16:21.373Z,99482.17
2018-07-17T14:18:50.331Z,99482.92
2018-07-17T14:21:19.309Z,99477.63
2018-07-17T14:23:48.383Z,99478.06
2018-07-17T14:26:17.297Z,99477.46
2018-07-17T14:28:46.320Z,99483.38
2018-07-17T14:31:15.712Z,99470.19
2018-07-17T14:33:44.640Z,99463.77
2018-07-17T14:36:13.556Z,99474.00
2018-07-17T14:38:42.514Z,99479.55
2018-07-17T14:41:11.570Z,99474.66
2018-07-17T14:43:40.496Z,99486.91
2018-07-17T14:46:14.227Z,99479.80
2018-07-17T14:48:47.089Z,99471.81
2018-07-17T14:51:16.035Z,99473.77
2018-07-17T14:53:44.949Z,99475.23
2018-07-17T14:56:13.879Z,99472.79
2018-07-17T14:58:42.925Z,99471.51
2018-07-17T15:01:11.985Z,99478.38
2018-07-17T15:03:40.910Z,99476.13
2018-07-17T15:06:09.863Z,99474.13
2018-07-17T15:08:38.829Z,99459.59
2018-07-17T15:11:08.329Z,99464.16
2018-07-17T15:13:37.408Z,99461.22
2018-07-17T15:16:06.394Z,99456.57
2018-07-17T15:18:35.307Z,99455.36
2018-07-17T15:21:04.408Z,99456.63
2018-07-17T15:23:33.322Z,99461.77
2018-07-17T15:26:02.268Z,99467.88
2018-07-17T15:28:31.192Z,99466.80
2018-07-17T15:31:00.719Z,99471.61
2018-07-17T15:33:29.670Z,99470.98
2018-07-17T15:35:58.568Z,99468.83
2018-07-17T15:38:27.633Z,99462.57
2018-07-17T15:40:57.894Z,99471.05
2018-07-17T15:43:26.797Z,99475.63
2018-07-17T15:45:55.813Z,99470.01
2018-07-17T15:48:24.742Z,99464.68
2018-07-17T15:50:53.909Z,99463.06
2018-07-17T15:53:22.911Z,99464.00
2018-07-17T15:55:51.967Z,99463.53
2018-07-17T15:58:21.031Z,99469.55
2018-07-17T16:00:50.142Z,99461.47
2018-07-17T16:03:19.287Z,99459.03
2018-07-17T16:05:48.315Z,99458.41
2018-07-17T16:08:17.265Z,99465.02
2018-07-17T16:10:46.330Z,99469.82
2018-07-17T16:13:15.349Z,99463.23
2018-07-17T16:15:44.206Z,99460.56
2018-07-17T16:18:13.251Z,99460.80
2018-07-17T16:20:42.187Z,99454.03
2018-07-17T16:23:11.101Z,99462.06
2018-07-17T16:25:40.078Z,99467.80
2018-07-17T16:28:08.977Z,99469.04
2018-07-17T16:30:37.954Z,99465.18
2018-07-17T16:33:06.908Z,99461.99
2018-07-17T16:35:35.917Z,99465.06
2018-07-17T16:38:04.916Z,99461.64
2018-07-17T16:40:33.920Z,99463.26
2018-07-17T16:43:02.848Z,99461.52
2018-07-17T16:45:31.798Z,99458.92
2018-07-17T16:48:00.827Z,99461.53
2018-07-17T16:50:29.739Z,99454.63
2018-07-17T16:52:58.686Z,99462.74
2018-07-17T16:55:27.598Z,99463.78
2018-07-17T16:57:56.539Z,99456.01
2018-07-17T17:00:25.501Z,99455.81
2018-07-17T17:02:54.426Z,99454.88
2018-07-17T17:05:23.374Z,99464.38
2018-07-17T17:07:52.496Z,99459.40
2018-07-17T17:10:21.667Z,99453.16
2018-07-17T17:12:50.662Z,99459.36
2018-07-17T17:15:19.607Z,99465.20
2018-07-17T17:17:48.557Z,99460.94
2018-07-17T17:20:17.874Z,99462.54
2018-07-17T17:22:46.900Z,99469.34
2018-07-17T17:25:15.810Z,99471.18
2018-07-17T17:27:44.773Z,99467.08
2018-07-17T17:30:13.718Z,99466.20
2018-07-17T17:32:42.711Z,99464.64
2018-07-17T17:35:11.649Z,99463.48
2018-07-17T17:37:40.650Z,99464.45
2018-07-17T17:40:09.630Z,99467.80
2018-07-17T17:42:38.642Z,99466.11
2018-07-17T17:45:07.573Z,99471.69
2018-07-17T17:47:36.512Z,99470.21
2018-07-17T17:50:05.438Z,99472.84
2018-07-17T17:52:34.392Z,99471.58
2018-07-17T17:55:03.319Z,99468.95
2018-07-17T17:57:32.224Z,99470.97
2018-07-17T18:00:01.201Z,99466.83
2018-07-17T18:02:30.147Z,99467.72
2018-07-17T18:04:59.100Z,99469.54
2018-07-17T18:07:28.077Z,99463.41
2018-07-17T18:09:57.045Z,99470.23
2018-07-17T18:12:25.996Z,99475.45
2018-07-17T18:14:55.028Z,99475.29
2018-07-17T18:17:25.639Z,99482.66
2018-07-17T18:19:54.681Z,99481.85
2018-07-17T18:22:26.883Z,99486.34
2018-07-17T18:24:55.857Z,99486.17
2018-07-17T18:27:24.813Z,99491.64
2018-07-17T18:29:53.835Z,99495.94
2018-07-17T18:32:22.756Z,99501.23
2018-07-17T18:34:51.690Z,99500.75
2018-07-17T18:37:20.620Z,99510.02
2018-07-17T18:39:49.575Z,99511.63
2018-07-17T18:42:18.634Z,99509.41
2018-07-17T18:44:47.630Z,99513.63
2018-07-17T18:47:16.613Z,99518.76
2018-07-17T18:49:45.574Z,99519.28
2018-07-17T18:52:14.657Z,99515.66
2018-07-17T18:54:43.521Z,99515.28
2018-07-17T18:57:12.505Z,99525.36
2018-07-17T18:59:41.779Z,99528.56
2018-07-17T19:02:10.947Z,99526.83
2018-07-17T19:04:39.902Z,99533.55
2018-07-17T19:07:08.988Z,99532.97
2018-07-17T19:09:37.962Z,99539.86
2018-07-17T19:12:07.582Z,99539.48
2018-07-17T19:14:36.525Z,99544.81
2018-07-17T19:17:05.515Z,99548.14
2018-07-17T19:19:34.504Z,99555.59
2018-07-17T19:22:03.427Z,99555.39
2018-07-17T19:24:32.385Z,99558.72
2018-07-17T19:27:01.369Z,99563.02
2018-07-17T19:29:30.319Z,99563.97
2018-07-17T19:31:59.288Z,99571.59
2018-07-17T19:34:28.248Z,99577.84
2018-07-17T19:36:57.199Z,99581.13
2018-07-17T19:39:26.182Z,99582.66
2018-07-17T19:41:55.148Z,99584.79
2018-07-17T19:44:24.112Z,99589.66
2018-07-17T19:46:53.125Z,99596.66
2018-07-17T19:49:22.107Z,99598.41
2018-07-17T19:51:51.019Z,99607.95
2018-07-17T19:54:20.143Z,99608.48
2018-07-17T19:56:49.125Z,99615.28
2018-07-17T19:59:18.067Z,99614.69
2018-07-17T20:01:47.203Z,99627.87
2018-07-17T20:04:16.129Z,99630.20
2018-07-17T20:06:45.085Z,99632.81
2018-07-17T20:09:14.134Z,99636.27
2018-07-17T20:11:43.134Z,99640.73
2018-07-17T20:14:14.284Z,99639.72
2018-07-17T20:16:43.304Z,99639.84
2018-07-17T20:19:12.273Z,99650.91
2018-07-17T20:21:41.213Z,99646.78
2018-07-17T20:24:10.192Z,99649.47
2018-07-17T20:26:39.187Z,99649.45
2018-07-17T20:29:08.123Z,99654.14
2018-07-17T20:31:37.376Z,99659.20
2018-07-17T20:34:06.731Z,99654.68
2018-07-17T20:36:35.676Z,99660.42
2018-07-17T20:39:06.367Z,99661.12
2018-07-17T20:41:35.651Z,99659.26
2018-07-17T20:44:04.808Z,99658.45
2018-07-17T20:46:33.824Z,99661.64
2018-07-17T20:49:02.754Z,99665.30
2018-07-17T20:51:31.895Z,99661.83
2018-07-17T20:54:05.049Z,99670.80
2018-07-17T20:56:34.013Z,99662.85
2018-07-17T20:59:03.005Z,99667.53
2018-07-17T21:01:31.997Z,99667.70
2018-07-17T21:04:01.041Z,99667.80
2018-07-17T21:06:30.196Z,99665.40
2018-07-17T21:08:59.205Z,99670.77
2018-07-17T21:11:28.217Z,99673.88
2018-07-17T21:13:57.172Z,99669.70
2018-07-17T21:16:27.532Z,99673.33
2018-07-17T21:18:56.623Z,99675.38
2018-07-17T21:21:25.762Z,99678.00
2018-07-17T21:23:54.707Z,99671.89
2018-07-17T21:26:23.739Z,99682.43
2018-07-17T21:28:52.697Z,99679.98
2018-07-17T21:31:21.678Z,99681.58
2018-07-17T21:33:50.662Z,99685.20
2018-07-17T21:36:19.572Z,99687.38
2018-07-17T21:38:48.631Z,99686.52
2018-07-17T21:41:17.656Z,99684.73
2018-07-17T21:43:46.661Z,99681.66
2018-07-17T21:46:15.628Z,99678.66
2018-07-17T21:48:44.600Z,99684.76
2018-07-17T21:51:13.575Z,99685.41
2018-07-17T21:53:42.608Z,99685.36
2018-07-17T21:56:11.554Z,99685.58
2018-07-17T21:58:40.676Z,99685.02
2018-07-17T22:01:09.728Z,99688.90
2018-07-17T22:03:38.738Z,99691.48
2018-07-17T22:06:07.794Z,99692.91
2018-07-17T22:08:36.975Z,99693.25
2018-07-17T22:11:05.917Z,99692.04
2018-07-17T22:13:35.165Z,99695.84
2018-07-17T22:16:04.231Z,99687.61
2018-07-17T22:18:33.194Z,99696.66
2018-07-17T22:21:02.167Z,99693.64
2018-07-17T22:23:31.075Z,99690.05
2018-07-17T22:26:00.147Z,99687.61
2018-07-17T22:28:29.070Z,99686.17
2018-07-17T22:30:58.036Z,99682.66
2018-07-17T22:33:27.117Z,99683.59
2018-07-17T22:35:56.101Z,99685.03
2018-07-17T22:38:25.045Z,99685.81
2018-07-17T22:40:54.095Z,99690.36
2018-07-17T22:43:23.026Z,99688.85
2018-07-17T22:45:52.149Z,99692.78
2018-07-17T22:48:21.119Z,99686.76
2018-07-17T22:50:50.033Z,99688.91
2018-07-17T22:53:20.929Z,99688.41
2018-07-17T22:59:16.206Z,99683.02
2018-07-17T23:01:45.156Z,99684.81
2018-07-17T23:04:14.185Z,99682.90
2018-07-17T23:06:43.151Z,99685.39
2018-07-17T23:09:12.279Z,99686.11
2018-07-17T23:11:41.289Z,99685.88
2018-07-17T23:14:10.285Z,99686.11
2018-07-17T23:16:39.368Z,99691.69
2018-07-17T23:19:08.397Z,99692.75
2018-07-17T23:21:37.428Z,99697.82
2018-07-17T23:24:06.396Z,99688.09
2018-07-17T23:26:35.511Z,99693.53
2018-07-17T23:29:04.706Z,99703.20
2018-07-17T23:31:34.514Z,99700.69
2018-07-17T23:34:03.495Z,99700.04
2018-07-17T23:36:32.506Z,99700.38
2018-07-17T23:39:01.409Z,99697.45
2018-07-17T23:41:30.396Z,99697.16
2018-07-17T23:43:59.308Z,99691.62
2018-07-17T23:46:28.295Z,99700.16
2018-07-17T23:48:57.153Z,99700.64
2018-07-17T23:51:26.099Z,99697.70
2018-07-17T23:53:55.055Z,99698.63
2018-07-17T23:56:24.004Z,99699.98
2018-07-17T23:58:52.956Z,99703.63
